sensor_id;sensor_type;location;lat;lon;timestamp;P1;durP1;ratioP1;P2;durP2;ratioP2
9729;SDS011;4904;49.152;11.004;2023-04-25T00:00:02;3.58;;;3.28;;
9729;SDS011;4904;49.152;11.004;2023-04-25T00:02:31;4.40;;;3.63;;
9729;SDS011;4904;49.152;11.004;2023-04-25T00:04:59;3.22;;;2.92;;
9729;SDS011;4904;49.152;11.004;2023-04-25T00:07:26;3.95;;;3.45;;
9729;SDS011;4904;49.152;11.004;2023-04-25T00:09:55;4.53;;;3.42;;
9729;SDS011;4904;49.152;11.004;2023-04-25T00:12:22;4.20;;;3.70;;
9729;SDS011;4904;49.152;11.004;2023-04-25T00:14:49;4.07;;;3.67;;
9729;SDS011;4904;49.152;11.004;2023-04-25T00:17:17;5.32;;;3.60;;
9729;SDS011;4904;49.152;11.004;2023-04-25T00:19:44;3.58;;;3.20;;
9729;SDS011;4904;49.152;11.004;2023-04-25T00:22:12;2.97;;;2.78;;
9729;SDS011;4904;49.152;11.004;2023-04-25T00:24:39;3.10;;;2.90;;
9729;SDS011;4904;49.152;11.004;2023-04-25T00:27:08;3.50;;;2.65;;
9729;SDS011;4904;49.152;11.004;2023-04-25T00:29:35;3.10;;;2.90;;
9729;SDS011;4904;49.152;11.004;2023-04-25T00:32:03;4.15;;;2.78;;
9729;SDS011;4904;49.152;11.004;2023-04-25T00:34:30;3.47;;;3.03;;
9729;SDS011;4904;49.152;11.004;2023-04-25T00:36:57;3.80;;;3.50;;
9729;SDS011;4904;49.152;11.004;2023-04-25T00:39:26;2.92;;;2.72;;
9729;SDS011;4904;49.152;11.004;2023-04-25T00:41:53;3.15;;;2.80;;
9729;SDS011;4904;49.152;11.004;2023-04-25T00:44:22;3.10;;;2.80;;
9729;SDS011;4904;49.152;11.004;2023-04-25T00:46:51;3.13;;;2.80;;
9729;SDS011;4904;49.152;11.004;2023-04-25T00:49:19;3.05;;;2.85;;
9729;SDS011;4904;49.152;11.004;2023-04-25T00:51:46;3.85;;;3.30;;
9729;SDS011;4904;49.152;11.004;2023-04-25T00:54:14;4.13;;;3.00;;
9729;SDS011;4904;49.152;11.004;2023-04-25T00:56:41;2.80;;;2.60;;
9729;SDS011;4904;49.152;11.004;2023-04-25T00:59:10;3.47;;;3.17;;
9729;SDS011;4904;49.152;11.004;2023-04-25T01:01:39;3.72;;;3.15;;
9729;SDS011;4904;49.152;11.004;2023-04-25T01:04:07;5.20;;;2.88;;
9729;SDS011;4904;49.152;11.004;2023-04-25T01:06:34;3.33;;;2.95;;
9729;SDS011;4904;49.152;11.004;2023-04-25T01:09:02;3.22;;;3.03;;
9729;SDS011;4904;49.152;11.004;2023-04-25T01:11:30;2.97;;;2.70;;
9729;SDS011;4904;49.152;11.004;2023-04-25T01:13:57;3.70;;;2.92;;
9729;SDS011;4904;49.152;11.004;2023-04-25T01:16:24;3.50;;;3.20;;
9729;SDS011;4904;49.152;11.004;2023-04-25T01:18:53;3.90;;;3.60;;
9729;SDS011;4904;49.152;11.004;2023-04-25T01:21:23;3.13;;;2.83;;
9729;SDS011;4904;49.152;11.004;2023-04-25T01:23:52;3.10;;;2.83;;
9729;SDS011;4904;49.152;11.004;2023-04-25T01:26:20;3.00;;;2.70;;
9729;SDS011;4904;49.152;11.004;2023-04-25T01:28:48;4.22;;;3.00;;
9729;SDS011;4904;49.152;11.004;2023-04-25T01:31:15;3.22;;;2.92;;
9729;SDS011;4904;49.152;11.004;2023-04-25T01:33:43;4.63;;;3.28;;
9729;SDS011;4904;49.152;11.004;2023-04-25T01:36:10;3.55;;;3.13;;
9729;SDS011;4904;49.152;11.004;2023-04-25T01:38:40;3.45;;;3.15;;
9729;SDS011;4904;49.152;11.004;2023-04-25T01:41:08;3.50;;;3.20;;
9729;SDS011;4904;49.152;11.004;2023-04-25T01:43:36;3.67;;;3.38;;
9729;SDS011;4904;49.152;11.004;2023-04-25T01:46:03;3.42;;;3.20;;
9729;SDS011;4904;49.152;11.004;2023-04-25T01:48:30;3.33;;;3.03;;
9729;SDS011;4904;49.152;11.004;2023-04-25T01:50:58;3.45;;;3.15;;
9729;SDS011;4904;49.152;11.004;2023-04-25T01:53:25;3.85;;;3.33;;
9729;SDS011;4904;49.152;11.004;2023-04-25T01:55:53;4.25;;;3.30;;
9729;SDS011;4904;49.152;11.004;2023-04-25T01:58:20;3.92;;;3.35;;
9729;SDS011;4904;49.152;11.004;2023-04-25T02:00:47;4.40;;;3.97;;
9729;SDS011;4904;49.152;11.004;2023-04-25T02:03:15;4.35;;;3.50;;
9729;SDS011;4904;49.152;11.004;2023-04-25T02:05:42;3.75;;;3.30;;
9729;SDS011;4904;49.152;11.004;2023-04-25T02:08:10;3.67;;;2.95;;
9729;SDS011;4904;49.152;11.004;2023-04-25T02:10:37;3.38;;;2.97;;
9729;SDS011;4904;49.152;11.004;2023-04-25T02:13:05;3.22;;;3.00;;
9729;SDS011;4904;49.152;11.004;2023-04-25T02:15:32;4.35;;;3.35;;
9729;SDS011;4904;49.152;11.004;2023-04-25T02:17:59;4.28;;;3.47;;
9729;SDS011;4904;49.152;11.004;2023-04-25T02:20:27;3.47;;;3.17;;
9729;SDS011;4904;49.152;11.004;2023-04-25T02:22:55;4.75;;;3.00;;
9729;SDS011;4904;49.152;11.004;2023-04-25T02:25:22;3.33;;;3.03;;
9729;SDS011;4904;49.152;11.004;2023-04-25T02:27:49;3.58;;;2.95;;
9729;SDS011;4904;49.152;11.004;2023-04-25T02:30:18;3.90;;;3.42;;
9729;SDS011;4904;49.152;11.004;2023-04-25T02:32:44;3.60;;;3.00;;
9729;SDS011;4904;49.152;11.004;2023-04-25T02:35:11;4.22;;;2.92;;
9729;SDS011;4904;49.152;11.004;2023-04-25T02:37:39;3.05;;;2.65;;
9729;SDS011;4904;49.152;11.004;2023-04-25T02:40:07;3.42;;;3.00;;
9729;SDS011;4904;49.152;11.004;2023-04-25T02:42:35;3.33;;;3.03;;
9729;SDS011;4904;49.152;11.004;2023-04-25T02:45:02;3.17;;;2.78;;
9729;SDS011;4904;49.152;11.004;2023-04-25T02:47:31;3.60;;;2.45;;
9729;SDS011;4904;49.152;11.004;2023-04-25T02:49:58;3.97;;;2.92;;
9729;SDS011;4904;49.152;11.004;2023-04-25T02:52:26;4.85;;;3.00;;
9729;SDS011;4904;49.152;11.004;2023-04-25T02:54:53;3.47;;;3.08;;
9729;SDS011;4904;49.152;11.004;2023-04-25T02:57:20;2.97;;;2.67;;
9729;SDS011;4904;49.152;11.004;2023-04-25T02:59:47;3.88;;;2.95;;
9729;SDS011;4904;49.152;11.004;2023-04-25T03:02:14;3.67;;;3.10;;
9729;SDS011;4904;49.152;11.004;2023-04-25T03:04:42;4.28;;;2.78;;
9729;SDS011;4904;49.152;11.004;2023-04-25T03:07:09;3.53;;;3.10;;
9729;SDS011;4904;49.152;11.004;2023-04-25T03:09:36;3.70;;;2.88;;
9729;SDS011;4904;49.152;11.004;2023-04-25T03:12:03;4.75;;;2.67;;
9729;SDS011;4904;49.152;11.004;2023-04-25T03:14:31;2.95;;;2.67;;
9729;SDS011;4904;49.152;11.004;2023-04-25T03:16:57;3.92;;;2.78;;
9729;SDS011;4904;49.152;11.004;2023-04-25T03:19:24;3.22;;;3.00;;
9729;SDS011;4904;49.152;11.004;2023-04-25T03:21:53;5.40;;;3.03;;
9729;SDS011;4904;49.152;11.004;2023-04-25T03:24:20;3.90;;;2.92;;
9729;SDS011;4904;49.152;11.004;2023-04-25T03:26:47;4.63;;;3.22;;
9729;SDS011;4904;49.152;11.004;2023-04-25T03:29:14;5.47;;;2.90;;
9729;SDS011;4904;49.152;11.004;2023-04-25T03:31:41;3.35;;;2.80;;
9729;SDS011;4904;49.152;11.004;2023-04-25T03:34:08;5.03;;;3.50;;
9729;SDS011;4904;49.152;11.004;2023-04-25T03:36:35;3.03;;;2.72;;
9729;SDS011;4904;49.152;11.004;2023-04-25T03:39:03;4.10;;;3.15;;
9729;SDS011;4904;49.152;11.004;2023-04-25T03:41:31;3.05;;;2.80;;
9729;SDS011;4904;49.152;11.004;2023-04-25T03:43:58;4.03;;;3.00;;
9729;SDS011;4904;49.152;11.004;2023-04-25T03:46:24;3.47;;;3.17;;
9729;SDS011;4904;49.152;11.004;2023-04-25T03:48:51;4.55;;;2.83;;
9729;SDS011;4904;49.152;11.004;2023-04-25T03:51:18;4.22;;;2.95;;
9729;SDS011;4904;49.152;11.004;2023-04-25T03:53:45;3.50;;;3.20;;
9729;SDS011;4904;49.152;11.004;2023-04-25T03:56:14;3.25;;;2.95;;
9729;SDS011;4904;49.152;11.004;2023-04-25T03:58:41;4.95;;;3.55;;
9729;SDS011;4904;49.152;11.004;2023-04-25T04:01:08;4.32;;;3.17;;
9729;SDS011;4904;49.152;11.004;2023-04-25T04:03:35;3.92;;;3.10;;
9729;SDS011;4904;49.152;11.004;2023-04-25T04:06:03;4.28;;;3.00;;
9729;SDS011;4904;49.152;11.004;2023-04-25T04:08:32;4.72;;;3.10;;
9729;SDS011;4904;49.152;11.004;2023-04-25T04:10:59;3.47;;;2.92;;
9729;SDS011;4904;49.152;11.004;2023-04-25T04:13:27;3.45;;;3.15;;
9729;SDS011;4904;49.152;11.004;2023-04-25T04:15:55;5.22;;;3.42;;
9729;SDS011;4904;49.152;11.004;2023-04-25T04:18:22;3.22;;;2.67;;
9729;SDS011;4904;49.152;11.004;2023-04-25T04:20:49;4.32;;;3.47;;
9729;SDS011;4904;49.152;11.004;2023-04-25T04:23:16;4.38;;;3.17;;
9729;SDS011;4904;49.152;11.004;2023-04-25T04:25:43;4.35;;;2.80;;
9729;SDS011;4904;49.152;11.004;2023-04-25T04:28:10;3.25;;;2.95;;
9729;SDS011;4904;49.152;11.004;2023-04-25T04:30:39;3.67;;;2.95;;
9729;SDS011;4904;49.152;11.004;2023-04-25T04:33:07;3.28;;;2.97;;
9729;SDS011;4904;49.152;11.004;2023-04-25T04:35:34;3.53;;;3.22;;
9729;SDS011;4904;49.152;11.004;2023-04-25T04:38:01;4.78;;;2.92;;
9729;SDS011;4904;49.152;11.004;2023-04-25T04:40:29;3.25;;;3.05;;
9729;SDS011;4904;49.152;11.004;2023-04-25T04:42:57;4.65;;;3.63;;
9729;SDS011;4904;49.152;11.004;2023-04-25T04:45:24;3.17;;;2.88;;
9729;SDS011;4904;49.152;11.004;2023-04-25T04:47:53;3.83;;;3.13;;
9729;SDS011;4904;49.152;11.004;2023-04-25T04:50:21;3.20;;;2.90;;
9729;SDS011;4904;49.152;11.004;2023-04-25T04:52:48;4.80;;;3.80;;
9729;SDS011;4904;49.152;11.004;2023-04-25T04:55:16;4.07;;;3.67;;
9729;SDS011;4904;49.152;11.004;2023-04-25T04:57:43;4.10;;;3.70;;
9729;SDS011;4904;49.152;11.004;2023-04-25T05:00:11;4.00;;;3.60;;
9729;SDS011;4904;49.152;11.004;2023-04-25T05:02:38;5.32;;;3.65;;
9729;SDS011;4904;49.152;11.004;2023-04-25T05:05:07;3.80;;;3.42;;
9729;SDS011;4904;49.152;11.004;2023-04-25T05:07:35;4.47;;;3.65;;
9729;SDS011;4904;49.152;11.004;2023-04-25T05:10:02;4.10;;;3.05;;
9729;SDS011;4904;49.152;11.004;2023-04-25T05:12:30;4.90;;;4.25;;
9729;SDS011;4904;49.152;11.004;2023-04-25T05:14:57;4.68;;;4.28;;
9729;SDS011;4904;49.152;11.004;2023-04-25T05:17:24;4.10;;;3.80;;
9729;SDS011;4904;49.152;11.004;2023-04-25T05:19:51;4.65;;;4.10;;
9729;SDS011;4904;49.152;11.004;2023-04-25T05:22:19;5.13;;;4.53;;
9729;SDS011;4904;49.152;11.004;2023-04-25T05:24:46;4.93;;;4.20;;
9729;SDS011;4904;49.152;11.004;2023-04-25T05:27:13;4.45;;;4.05;;
9729;SDS011;4904;49.152;11.004;2023-04-25T05:29:42;5.15;;;4.15;;
9729;SDS011;4904;49.152;11.004;2023-04-25T05:32:09;4.78;;;4.38;;
9729;SDS011;4904;49.152;11.004;2023-04-25T05:34:36;5.18;;;4.60;;
9729;SDS011;4904;49.152;11.004;2023-04-25T05:37:04;4.40;;;4.00;;
9729;SDS011;4904;49.152;11.004;2023-04-25T05:39:32;4.95;;;4.45;;
9729;SDS011;4904;49.152;11.004;2023-04-25T05:41:59;4.70;;;4.30;;
9729;SDS011;4904;49.152;11.004;2023-04-25T05:44:26;5.18;;;4.68;;
9729;SDS011;4904;49.152;11.004;2023-04-25T05:46:54;5.10;;;4.28;;
9729;SDS011;4904;49.152;11.004;2023-04-25T05:49:21;5.03;;;4.63;;
9729;SDS011;4904;49.152;11.004;2023-04-25T05:51:48;5.00;;;4.30;;
9729;SDS011;4904;49.152;11.004;2023-04-25T05:54:15;6.53;;;4.43;;
9729;SDS011;4904;49.152;11.004;2023-04-25T05:56:44;5.13;;;4.63;;
9729;SDS011;4904;49.152;11.004;2023-04-25T05:59:11;6.03;;;5.03;;
9729;SDS011;4904;49.152;11.004;2023-04-25T06:01:38;7.43;;;4.88;;
9729;SDS011;4904;49.152;11.004;2023-04-25T06:04:05;5.50;;;4.95;;
9729;SDS011;4904;49.152;11.004;2023-04-25T06:06:32;5.32;;;4.70;;
9729;SDS011;4904;49.152;11.004;2023-04-25T06:08:59;5.65;;;5.05;;
9729;SDS011;4904;49.152;11.004;2023-04-25T06:11:26;6.93;;;5.32;;
9729;SDS011;4904;49.152;11.004;2023-04-25T06:13:54;6.03;;;4.75;;
9729;SDS011;4904;49.152;11.004;2023-04-25T06:16:21;5.20;;;4.70;;
9729;SDS011;4904;49.152;11.004;2023-04-25T06:18:50;5.97;;;4.90;;
9729;SDS011;4904;49.152;11.004;2023-04-25T06:21:17;5.35;;;4.93;;
9729;SDS011;4904;49.152;11.004;2023-04-25T06:23:45;6.10;;;5.50;;
9729;SDS011;4904;49.152;11.004;2023-04-25T06:26:11;5.28;;;4.78;;
9729;SDS011;4904;49.152;11.004;2023-04-25T06:28:39;5.25;;;4.75;;
9729;SDS011;4904;49.152;11.004;2023-04-25T06:31:07;5.20;;;4.70;;
9729;SDS011;4904;49.152;11.004;2023-04-25T06:33:34;4.43;;;4.03;;
9729;SDS011;4904;49.152;11.004;2023-04-25T06:36:01;5.82;;;4.70;;
9729;SDS011;4904;49.152;11.004;2023-04-25T06:38:28;5.80;;;4.70;;
9729;SDS011;4904;49.152;11.004;2023-04-25T06:40:56;5.30;;;4.60;;
9729;SDS011;4904;49.152;11.004;2023-04-25T06:43:23;4.50;;;4.10;;
9729;SDS011;4904;49.152;11.004;2023-04-25T06:45:50;5.53;;;4.22;;
9729;SDS011;4904;49.152;11.004;2023-04-25T06:48:18;5.93;;;4.43;;
9729;SDS011;4904;49.152;11.004;2023-04-25T06:50:45;3.33;;;3.03;;
9729;SDS011;4904;49.152;11.004;2023-04-25T06:53:12;3.30;;;3.00;;
9729;SDS011;4904;49.152;11.004;2023-04-25T06:55:39;4.18;;;3.75;;
9729;SDS011;4904;49.152;11.004;2023-04-25T06:58:06;4.68;;;4.28;;
9729;SDS011;4904;49.152;11.004;2023-04-25T07:00:33;3.13;;;2.88;;
9729;SDS011;4904;49.152;11.004;2023-04-25T07:03:01;4.20;;;3.80;;
9729;SDS011;4904;49.152;11.004;2023-04-25T07:05:29;5.88;;;3.65;;
9729;SDS011;4904;49.152;11.004;2023-04-25T07:07:56;3.28;;;2.97;;
9729;SDS011;4904;49.152;11.004;2023-04-25T07:10:23;4.15;;;3.58;;
9729;SDS011;4904;49.152;11.004;2023-04-25T07:12:50;5.32;;;4.47;;
9729;SDS011;4904;49.152;11.004;2023-04-25T07:15:17;4.00;;;3.60;;
9729;SDS011;4904;49.152;11.004;2023-04-25T07:17:44;4.63;;;4.20;;
9729;SDS011;4904;49.152;11.004;2023-04-25T07:20:11;4.32;;;3.92;;
9729;SDS011;4904;49.152;11.004;2023-04-25T07:22:39;4.80;;;4.30;;
9729;SDS011;4904;49.152;11.004;2023-04-25T07:25:07;4.43;;;3.97;;
9729;SDS011;4904;49.152;11.004;2023-04-25T07:27:34;5.03;;;4.00;;
9729;SDS011;4904;49.152;11.004;2023-04-25T07:30:02;4.40;;;3.53;;
9729;SDS011;4904;49.152;11.004;2023-04-25T07:32:30;5.22;;;4.70;;
9729;SDS011;4904;49.152;11.004;2023-04-25T07:34:57;3.05;;;2.78;;
9729;SDS011;4904;49.152;11.004;2023-04-25T07:37:24;4.63;;;4.22;;
9729;SDS011;4904;49.152;11.004;2023-04-25T07:39:53;4.97;;;4.40;;
9729;SDS011;4904;49.152;11.004;2023-04-25T07:42:20;5.20;;;4.70;;
9729;SDS011;4904;49.152;11.004;2023-04-25T07:44:47;3.80;;;3.45;;
9729;SDS011;4904;49.152;11.004;2023-04-25T07:47:15;5.18;;;4.78;;
9729;SDS011;4904;49.152;11.004;2023-04-25T07:49:44;5.05;;;4.65;;
9729;SDS011;4904;49.152;11.004;2023-04-25T07:52:11;5.45;;;4.93;;
9729;SDS011;4904;49.152;11.004;2023-04-25T07:54:38;4.40;;;3.97;;
9729;SDS011;4904;49.152;11.004;2023-04-25T07:57:07;5.43;;;4.78;;
9729;SDS011;4904;49.152;11.004;2023-04-25T07:59:34;6.07;;;4.80;;
9729;SDS011;4904;49.152;11.004;2023-04-25T08:02:01;4.43;;;4.03;;
9729;SDS011;4904;49.152;11.004;2023-04-25T08:04:28;5.95;;;5.25;;
9729;SDS011;4904;49.152;11.004;2023-04-25T08:06:56;5.50;;;5.00;;
9729;SDS011;4904;49.152;11.004;2023-04-25T08:09:23;4.90;;;4.50;;
9729;SDS011;4904;49.152;11.004;2023-04-25T08:11:50;6.63;;;4.20;;
9729;SDS011;4904;49.152;11.004;2023-04-25T08:14:18;4.88;;;4.47;;
9729;SDS011;4904;49.152;11.004;2023-04-25T08:16:45;5.28;;;3.97;;
9729;SDS011;4904;49.152;11.004;2023-04-25T08:19:12;3.95;;;3.13;;
9729;SDS011;4904;49.152;11.004;2023-04-25T08:21:40;7.43;;;5.03;;
9729;SDS011;4904;49.152;11.004;2023-04-25T08:24:07;3.72;;;3.42;;
9729;SDS011;4904;49.152;11.004;2023-04-25T08:26:34;3.85;;;3.55;;
9729;SDS011;4904;49.152;11.004;2023-04-25T08:29:02;4.00;;;3.60;;
9729;SDS011;4904;49.152;11.004;2023-04-25T08:31:31;5.38;;;3.75;;
9729;SDS011;4904;49.152;11.004;2023-04-25T08:33:58;5.13;;;4.63;;
9729;SDS011;4904;49.152;11.004;2023-04-25T08:36:25;4.13;;;3.83;;
9729;SDS011;4904;49.152;11.004;2023-04-25T08:38:53;6.78;;;3.40;;
9729;SDS011;4904;49.152;11.004;2023-04-25T08:41:20;3.80;;;3.50;;
9729;SDS011;4904;49.152;11.004;2023-04-25T08:43:48;3.60;;;3.30;;
9729;SDS011;4904;49.152;11.004;2023-04-25T08:46:17;4.40;;;3.78;;
9729;SDS011;4904;49.152;11.004;2023-04-25T08:48:46;6.40;;;4.55;;
9729;SDS011;4904;49.152;11.004;2023-04-25T08:51:15;6.65;;;3.72;;
9729;SDS011;4904;49.152;11.004;2023-04-25T08:53:47;4.15;;;3.75;;
9729;SDS011;4904;49.152;11.004;2023-04-25T08:56:17;4.30;;;3.75;;
9729;SDS011;4904;49.152;11.004;2023-04-25T08:58:47;4.20;;;3.80;;
9729;SDS011;4904;49.152;11.004;2023-04-25T09:01:15;6.95;;;3.45;;
9729;SDS011;4904;49.152;11.004;2023-04-25T09:03:42;3.75;;;3.40;;
9729;SDS011;4904;49.152;11.004;2023-04-25T09:06:13;4.05;;;3.47;;
9729;SDS011;4904;49.152;11.004;2023-04-25T09:08:41;4.63;;;3.38;;
9729;SDS011;4904;49.152;11.004;2023-04-25T09:11:08;4.50;;;3.97;;
9729;SDS011;4904;49.152;11.004;2023-04-25T09:13:36;4.50;;;3.75;;
9729;SDS011;4904;49.152;11.004;2023-04-25T09:16:02;5.35;;;3.83;;
9729;SDS011;4904;49.152;11.004;2023-04-25T09:18:30;3.28;;;2.97;;
9729;SDS011;4904;49.152;11.004;2023-04-25T09:20:58;4.65;;;4.00;;
9729;SDS011;4904;49.152;11.004;2023-04-25T09:23:38;5.00;;;4.05;;
9729;SDS011;4904;49.152;11.004;2023-04-25T09:26:06;5.00;;;4.60;;
9729;SDS011;4904;49.152;11.004;2023-04-25T09:28:34;4.15;;;3.75;;
9729;SDS011;4904;49.152;11.004;2023-04-25T09:31:02;4.82;;;4.32;;
9729;SDS011;4904;49.152;11.004;2023-04-25T09:33:30;4.60;;;3.83;;
9729;SDS011;4904;49.152;11.004;2023-04-25T09:36:03;4.13;;;3.60;;
9729;SDS011;4904;49.152;11.004;2023-04-25T09:38:39;4.40;;;3.22;;
9729;SDS011;4904;49.152;11.004;2023-04-25T09:41:07;3.30;;;3.00;;
9729;SDS011;4904;49.152;11.004;2023-04-25T09:43:34;4.32;;;3.90;;
9729;SDS011;4904;49.152;11.004;2023-04-25T09:46:04;4.80;;;3.60;;
9729;SDS011;4904;49.152;11.004;2023-04-25T09:48:36;4.28;;;3.65;;
9729;SDS011;4904;49.152;11.004;2023-04-25T09:51:03;4.07;;;3.20;;
9729;SDS011;4904;49.152;11.004;2023-04-25T09:53:33;4.95;;;3.25;;
9729;SDS011;4904;49.152;11.004;2023-04-25T09:56:02;4.28;;;3.03;;
9729;SDS011;4904;49.152;11.004;2023-04-25T09:58:32;2.70;;;2.50;;
9729;SDS011;4904;49.152;11.004;2023-04-25T10:01:00;4.03;;;3.25;;
9729;SDS011;4904;49.152;11.004;2023-04-25T10:03:29;3.70;;;2.97;;
9729;SDS011;4904;49.152;11.004;2023-04-25T10:05:59;3.67;;;3.38;;
9729;SDS011;4904;49.152;11.004;2023-04-25T10:08:29;2.92;;;2.60;;
9729;SDS011;4904;49.152;11.004;2023-04-25T10:11:01;3.97;;;2.72;;
9729;SDS011;4904;49.152;11.004;2023-04-25T10:13:30;3.45;;;3.15;;
9729;SDS011;4904;49.152;11.004;2023-04-25T10:15:57;3.85;;;3.15;;
9729;SDS011;4904;49.152;11.004;2023-04-25T10:18:25;2.97;;;2.70;;
9729;SDS011;4904;49.152;11.004;2023-04-25T10:20:53;3.83;;;3.40;;
9729;SDS011;4904;49.152;11.004;2023-04-25T10:23:21;3.88;;;3.47;;
9729;SDS011;4904;49.152;11.004;2023-04-25T10:25:49;4.22;;;3.80;;
9729;SDS011;4904;49.152;11.004;2023-04-25T10:28:19;3.97;;;3.60;;
9729;SDS011;4904;49.152;11.004;2023-04-25T10:30:59;4.95;;;3.60;;
9729;SDS011;4904;49.152;11.004;2023-04-25T10:33:34;3.95;;;3.28;;
9729;SDS011;4904;49.152;11.004;2023-04-25T10:36:09;4.05;;;3.22;;
9729;SDS011;4904;49.152;11.004;2023-04-25T10:38:37;3.22;;;2.92;;
9729;SDS011;4904;49.152;11.004;2023-04-25T10:41:05;4.47;;;2.63;;
9729;SDS011;4904;49.152;11.004;2023-04-25T10:43:36;4.93;;;3.00;;
9729;SDS011;4904;49.152;11.004;2023-04-25T10:46:13;3.83;;;3.03;;
9729;SDS011;4904;49.152;11.004;2023-04-25T10:48:45;4.20;;;2.97;;
9729;SDS011;4904;49.152;11.004;2023-04-25T10:51:18;3.67;;;3.30;;
9729;SDS011;4904;49.152;11.004;2023-04-25T10:53:46;4.78;;;2.90;;
9729;SDS011;4904;49.152;11.004;2023-04-25T10:56:23;3.28;;;2.65;;
9729;SDS011;4904;49.152;11.004;2023-04-25T10:58:54;3.75;;;2.97;;
9729;SDS011;4904;49.152;11.004;2023-04-25T11:01:35;5.10;;;3.25;;
9729;SDS011;4904;49.152;11.004;2023-04-25T11:04:03;3.25;;;2.72;;
9729;SDS011;4904;49.152;11.004;2023-04-25T11:06:34;3.35;;;3.05;;
9729;SDS011;4904;49.152;11.004;2023-04-25T11:09:10;4.25;;;2.80;;
9729;SDS011;4904;49.152;11.004;2023-04-25T11:11:38;3.88;;;2.80;;
9729;SDS011;4904;49.152;11.004;2023-04-25T11:14:07;3.25;;;2.40;;
9729;SDS011;4904;49.152;11.004;2023-04-25T11:16:34;3.65;;;2.67;;
9729;SDS011;4904;49.152;11.004;2023-04-25T11:19:01;3.13;;;2.78;;
9729;SDS011;4904;49.152;11.004;2023-04-25T11:21:29;3.38;;;3.00;;
9729;SDS011;4904;49.152;11.004;2023-04-25T11:23:58;3.30;;;2.75;;
9729;SDS011;4904;49.152;11.004;2023-04-25T11:26:27;3.22;;;2.58;;
9729;SDS011;4904;49.152;11.004;2023-04-25T11:28:57;2.72;;;2.45;;
9729;SDS011;4904;49.152;11.004;2023-04-25T11:31:26;3.03;;;2.72;;
9729;SDS011;4904;49.152;11.004;2023-04-25T11:33:53;3.83;;;2.55;;
9729;SDS011;4904;49.152;11.004;2023-04-25T11:36:22;3.42;;;2.60;;
9729;SDS011;4904;49.152;11.004;2023-04-25T11:38:50;3.10;;;2.80;;
9729;SDS011;4904;49.152;11.004;2023-04-25T11:41:19;2.67;;;2.47;;
9729;SDS011;4904;49.152;11.004;2023-04-25T11:43:47;3.58;;;2.88;;
9729;SDS011;4904;49.152;11.004;2023-04-25T11:46:16;3.50;;;2.80;;
9729;SDS011;4904;49.152;11.004;2023-04-25T11:48:46;3.53;;;2.58;;
9729;SDS011;4904;49.152;11.004;2023-04-25T11:51:15;2.95;;;2.65;;
9729;SDS011;4904;49.152;11.004;2023-04-25T11:53:43;3.85;;;2.67;;
9729;SDS011;4904;49.152;11.004;2023-04-25T11:56:11;3.60;;;2.70;;
9729;SDS011;4904;49.152;11.004;2023-04-25T11:58:53;4.53;;;2.60;;
9729;SDS011;4904;49.152;11.004;2023-04-25T12:01:25;3.15;;;2.70;;
9729;SDS011;4904;49.152;11.004;2023-04-25T12:03:55;4.00;;;2.80;;
9729;SDS011;4904;49.152;11.004;2023-04-25T12:06:25;3.15;;;2.53;;
9729;SDS011;4904;49.152;11.004;2023-04-25T12:09:00;3.15;;;2.70;;
9729;SDS011;4904;49.152;11.004;2023-04-25T12:11:29;2.85;;;2.42;;
9729;SDS011;4904;49.152;11.004;2023-04-25T12:14:01;3.13;;;2.28;;
9729;SDS011;4904;49.152;11.004;2023-04-25T12:16:29;3.97;;;2.80;;
9729;SDS011;4904;49.152;11.004;2023-04-25T12:19:07;2.53;;;2.33;;
9729;SDS011;4904;49.152;11.004;2023-04-25T12:21:34;4.30;;;2.58;;
9729;SDS011;4904;49.152;11.004;2023-04-25T12:24:11;3.20;;;2.60;;
9729;SDS011;4904;49.152;11.004;2023-04-25T12:26:46;4.47;;;2.83;;
9729;SDS011;4904;49.152;11.004;2023-04-25T12:29:17;2.92;;;2.67;;
9729;SDS011;4904;49.152;11.004;2023-04-25T12:31:45;2.53;;;2.33;;
9729;SDS011;4904;49.152;11.004;2023-04-25T12:34:14;5.90;;;2.28;;
9729;SDS011;4904;49.152;11.004;2023-04-25T12:36:41;4.25;;;2.65;;
9729;SDS011;4904;49.152;11.004;2023-04-25T12:39:08;3.25;;;2.20;;
9729;SDS011;4904;49.152;11.004;2023-04-25T12:41:35;3.03;;;2.17;;
9729;SDS011;4904;49.152;11.004;2023-04-25T12:44:02;2.83;;;2.22;;
9729;SDS011;4904;49.152;11.004;2023-04-25T12:46:29;5.88;;;2.60;;
9729;SDS011;4904;49.152;11.004;2023-04-25T12:48:56;2.92;;;2.38;;
9729;SDS011;4904;49.152;11.004;2023-04-25T12:51:25;3.30;;;2.90;;
9729;SDS011;4904;49.152;11.004;2023-04-25T12:53:53;4.38;;;3.63;;
9729;SDS011;4904;49.152;11.004;2023-04-25T12:56:20;3.45;;;2.30;;
9729;SDS011;4904;49.152;11.004;2023-04-25T12:58:47;4.15;;;3.17;;
9729;SDS011;4904;49.152;11.004;2023-04-25T13:01:14;4.35;;;2.42;;
9729;SDS011;4904;49.152;11.004;2023-04-25T13:03:41;4.35;;;2.30;;
9729;SDS011;4904;49.152;11.004;2023-04-25T13:06:08;2.67;;;2.47;;
9729;SDS011;4904;49.152;11.004;2023-04-25T13:08:37;3.22;;;2.25;;
9729;SDS011;4904;49.152;11.004;2023-04-25T13:11:04;3.22;;;2.10;;
9729;SDS011;4904;49.152;11.004;2023-04-25T13:13:31;3.28;;;2.28;;
9729;SDS011;4904;49.152;11.004;2023-04-25T13:15:59;2.10;;;2.00;;
9729;SDS011;4904;49.152;11.004;2023-04-25T13:18:27;2.67;;;1.95;;
9729;SDS011;4904;49.152;11.004;2023-04-25T13:20:54;2.85;;;2.03;;
9729;SDS011;4904;49.152;11.004;2023-04-25T13:23:21;3.00;;;1.98;;
9729;SDS011;4904;49.152;11.004;2023-04-25T13:25:50;2.88;;;2.20;;
9729;SDS011;4904;49.152;11.004;2023-04-25T13:28:17;2.35;;;1.85;;
9729;SDS011;4904;49.152;11.004;2023-04-25T13:30:44;2.53;;;2.15;;
9729;SDS011;4904;49.152;11.004;2023-04-25T13:33:12;2.30;;;2.10;;
9729;SDS011;4904;49.152;11.004;2023-04-25T13:35:40;2.30;;;2.10;;
9729;SDS011;4904;49.152;11.004;2023-04-25T13:38:08;2.40;;;2.08;;
9729;SDS011;4904;49.152;11.004;2023-04-25T13:40:35;2.85;;;2.00;;
9729;SDS011;4904;49.152;11.004;2023-04-25T13:43:03;2.30;;;2.10;;
9729;SDS011;4904;49.152;11.004;2023-04-25T13:45:31;3.17;;;2.25;;
9729;SDS011;4904;49.152;11.004;2023-04-25T13:47:58;2.88;;;2.00;;
9729;SDS011;4904;49.152;11.004;2023-04-25T13:50:26;2.63;;;2.42;;
9729;SDS011;4904;49.152;11.004;2023-04-25T13:52:53;1.92;;;1.75;;
9729;SDS011;4904;49.152;11.004;2023-04-25T13:55:20;2.55;;;1.90;;
9729;SDS011;4904;49.152;11.004;2023-04-25T13:57:47;2.95;;;1.95;;
9729;SDS011;4904;49.152;11.004;2023-04-25T14:00:17;3.17;;;2.40;;
9729;SDS011;4904;49.152;11.004;2023-04-25T14:02:45;3.40;;;2.65;;
9729;SDS011;4904;49.152;11.004;2023-04-25T14:05:12;2.63;;;2.35;;
9729;SDS011;4904;49.152;11.004;2023-04-25T14:07:39;3.95;;;2.50;;
9729;SDS011;4904;49.152;11.004;2023-04-25T14:10:07;3.88;;;2.70;;
9729;SDS011;4904;49.152;11.004;2023-04-25T14:12:34;2.70;;;2.50;;
9729;SDS011;4904;49.152;11.004;2023-04-25T14:15:02;2.45;;;2.22;;
9729;SDS011;4904;49.152;11.004;2023-04-25T14:17:31;2.78;;;2.53;;
9729;SDS011;4904;49.152;11.004;2023-04-25T14:19:58;3.60;;;2.60;;
9729;SDS011;4904;49.152;11.004;2023-04-25T14:22:25;2.83;;;2.53;;
9729;SDS011;4904;49.152;11.004;2023-04-25T14:24:52;3.28;;;2.70;;
9729;SDS011;4904;49.152;11.004;2023-04-25T14:27:19;3.08;;;2.72;;
9729;SDS011;4904;49.152;11.004;2023-04-25T14:29:47;2.63;;;2.40;;
9729;SDS011;4904;49.152;11.004;2023-04-25T14:32:14;3.20;;;2.90;;
9729;SDS011;4904;49.152;11.004;2023-04-25T14:34:42;2.60;;;2.40;;
9729;SDS011;4904;49.152;11.004;2023-04-25T14:37:10;3.80;;;2.60;;
9729;SDS011;4904;49.152;11.004;2023-04-25T14:39:37;3.63;;;2.85;;
9729;SDS011;4904;49.152;11.004;2023-04-25T14:42:04;2.80;;;2.58;;
9729;SDS011;4904;49.152;11.004;2023-04-25T14:44:31;2.83;;;2.30;;
9729;SDS011;4904;49.152;11.004;2023-04-25T14:46:58;3.63;;;2.33;;
9729;SDS011;4904;49.152;11.004;2023-04-25T14:49:26;5.22;;;2.80;;
9729;SDS011;4904;49.152;11.004;2023-04-25T14:51:54;2.95;;;2.42;;
9729;SDS011;4904;49.152;11.004;2023-04-25T14:54:21;3.05;;;2.42;;
9729;SDS011;4904;49.152;11.004;2023-04-25T14:56:49;3.42;;;2.40;;
9729;SDS011;4904;49.152;11.004;2023-04-25T14:59:16;2.78;;;2.50;;
9729;SDS011;4904;49.152;11.004;2023-04-25T15:01:43;4.53;;;2.80;;
9729;SDS011;4904;49.152;11.004;2023-04-25T15:04:10;3.90;;;2.90;;